Time;durP1;ratioP1;P1;durP2;ratioP2;P2;SDS_P1;SDS_P2;PMS_P1;PMS_P2;Temp;Humidity;BMP_temperature;BMP_pressure;BME280_temperature;BME280_humidity;BME280_pressure;Samples;Min_cycle;Max_cycle;Signal;HPM_P1;HPM_P2
2023/10/22 00:09:08;;;;;;;2.70;0.50;;;;;;;11.71;53.65;98914.28;20965046;28;20231;-89
2023/10/22 00:19:11;;;;;;;3.85;0.32;;;;;;;11.80;53.86;98910.06;20964506;28;20548;-83
2023/10/22 00:29:13;;;;;;;1.90;0.20;;;;;;;11.84;53.15;98918.56;20989479;28;20302;-82
2023/10/22 00:39:16;;;;;;;1.52;0.20;;;;;;;11.65;54.32;98924.22;20974940;28;20310;-81
2023/10/22 00:49:18;;;;;;;1.00;0.30;;;;;;;11.28;55.47;98915.34;20998629;28;20226;-85
2023/10/22 00:59:22;;;;;;;3.13;0.30;;;;;;;11.33;54.95;98937.56;21006656;28;20205;-89
2023/10/22 01:09:23;;;;;;;3.67;0.27;;;;;;;11.24;55.88;98932.16;21005550;28;20619;-80
2023/10/22 01:19:27;;;;;;;0.85;0.10;;;;;;;11.56;54.95;98942.13;20999094;28;20245;-85
2023/10/22 01:29:30;;;;;;;5.18;0.52;;;;;;;11.29;55.97;98951.59;21004955;28;20219;-85
2023/10/22 01:39:31;;;;;;;0.50;0.17;;;;;;;11.62;55.32;98959.59;21027945;28;20246;-84
2023/10/22 01:49:35;;;;;;;2.13;0.23;;;;;;;11.81;55.21;98961.63;21071428;28;20265;-90
2023/10/22 01:59:38;;;;;;;4.53;0.20;;;;;;;11.16;57.36;98983.88;21097482;28;20591;-90
2023/10/22 02:09:41;;;;;;;2.00;0.10;;;;;;;11.45;56.08;98971.25;21082689;28;20226;-90
2023/10/22 02:19:43;;;;;;;1.73;0.20;;;;;;;11.19;57.32;98983.94;21079279;28;20289;-90
2023/10/22 02:29:46;;;;;;;0.50;0.13;;;;;;;11.48;57.14;98993.88;21083659;28;20400;-85
2023/10/22 02:39:48;;;;;;;0.52;0.10;;;;;;;11.24;57.70;99002.56;21069826;28;20245;-80
2023/10/22 02:49:53;;;;;;;1.07;0.20;;;;;;;11.67;57.62;99004.41;21073542;28;20686;-80
2023/10/22 02:59:55;;;;;;;2.60;0.20;;;;;;;11.18;58.94;99009.63;21081591;28;20591;-87
2023/10/22 03:09:58;;;;;;;1.97;0.20;;;;;;;11.27;58.79;99018.72;21065087;28;20382;-84
2023/10/22 03:20:00;;;;;;;1.50;0.20;;;;;;;11.07;60.22;99028.28;21070036;28;20198;-88
2023/10/22 03:30:04;;;;;;;1.97;0.10;;;;;;;11.03;61.96;99038.66;21067009;28;20721;-86
2023/10/22 03:40:09;;;;;;;0.47;0.10;;;;;;;11.04;61.81;99045.91;21082009;28;20222;-79
2023/10/22 03:50:12;;;;;;;1.20;0.30;;;;;;;10.90;63.52;99063.25;21079242;28;20226;-85
2023/10/22 04:00:17;;;;;;;0.93;0.33;;;;;;;10.47;67.01;99084.56;21066434;28;20226;-80
2023/10/22 04:10:20;;;;;;;1.57;0.20;;;;;;;10.57;67.40;99080.41;21059068;28;20226;-80
2023/10/22 04:20:22;;;;;;;1.27;0.20;;;;;;;10.59;66.91;99097.72;21063421;28;20211;-82
2023/10/22 04:30:25;;;;;;;2.00;0.20;;;;;;;10.30;68.33;99109.34;21086955;28;20244;-81
2023/10/22 04:40:27;;;;;;;0.40;0.10;;;;;;;10.89;65.92;99112.28;21059775;28;20361;-89
2023/10/22 04:50:31;;;;;;;0.97;0.10;;;;;;;10.39;68.38;99133.34;21068994;28;20590;-80
2023/10/22 05:00:33;;;;;;;0.60;0.20;;;;;;;10.80;67.26;99160.25;21069721;28;20289;-79
2023/10/22 05:10:39;;;;;;;1.17;0.20;;;;;;;10.49;69.15;99177.00;21060158;28;20284;-79
2023/10/22 05:20:40;;;;;;;0.57;0.10;;;;;;;10.79;68.59;99186.75;21073793;28;20586;-86
2023/10/22 05:30:44;;;;;;;0.10;0.10;;;;;;;10.51;69.49;99219.66;21075771;28;20257;-86
2023/10/22 05:40:46;;;;;;;0.40;0.10;;;;;;;10.18;73.81;99233.06;21046425;28;20226;-79
2023/10/22 05:50:50;;;;;;;3.87;0.10;;;;;;;10.83;71.57;99231.91;20956546;28;20579;-83
2023/10/22 06:00:52;;;;;;;0.57;0.10;;;;;;;10.84;69.94;99256.88;20972482;28;20230;-80
2023/10/22 06:10:55;;;;;;;0.10;0.00;;;;;;;10.72;69.75;99276.59;20978704;28;20223;-82
2023/10/22 06:20:57;;;;;;;0.20;0.10;;;;;;;10.54;72.50;99280.81;20981101;28;20202;-85
2023/10/22 06:31:12;;;;;;;0.53;0.00;;;;;;;10.56;68.29;99306.59;20973098;28;20218;-86
2023/10/22 06:41:14;;;;;;;0.63;0.10;;;;;;;10.83;63.17;99313.50;21030670;28;20312;-79
2023/10/22 06:51:18;;;;;;;0.00;0.00;;;;;;;11.05;61.28;99329.03;21061958;28;20226;-81
2023/10/22 07:01:20;;;;;;;0.00;0.00;;;;;;;10.83;60.96;99350.91;21080833;28;20197;-87
2023/10/22 07:11:23;;;;;;;1.10;0.10;;;;;;;10.72;61.69;99361.00;21067570;28;20630;-79
2023/10/22 07:21:27;;;;;;;0.97;0.50;;;;;;;11.08;59.11;99370.56;21061460;28;20186;-80
2023/10/22 07:31:31;;;;;;;0.45;0.20;;;;;;;10.94;58.41;99390.66;21072731;28;20229;-88
2023/10/22 07:41:32;;;;;;;0.30;0.10;;;;;;;10.93;57.08;99405.06;21029178;28;20301;-89
2023/10/22 07:51:36;;;;;;;1.48;0.08;;;;;;;11.36;55.78;99410.03;20970603;28;20237;-89
2023/10/22 08:01:37;;;;;;;1.30;0.20;;;;;;;10.71;57.15;99440.97;20981873;28;20195;-88
2023/10/22 08:11:41;;;;;;;0.22;0.03;;;;;;;11.08;56.65;99457.84;20989218;28;20275;-89
2023/10/22 08:21:53;;;;;;;1.23;0.10;;;;;;;10.99;57.84;99468.41;20978165;28;20619;-87
2023/10/22 08:32:01;;;;;;;1.65;0.20;;;;;;;12.17;54.01;99485.72;20968162;28;20258;-84
2023/10/22 08:42:19;;;;;;;0.40;0.10;;;;;;;10.81;57.71;99504.41;20976581;28;20234;-87
2023/10/22 08:52:30;;;;;;;1.02;0.17;;;;;;;11.78;55.62;99520.41;21000566;28;20313;-81
2023/10/22 09:02:34;;;;;;;0.47;0.20;;;;;;;11.53;56.98;99520.44;20976695;28;20195;-87
2023/10/22 09:12:42;;;;;;;0.55;0.10;;;;;;;11.55;55.84;99539.81;20972182;28;20313;-89
2023/10/22 09:22:47;;;;;;;1.20;0.20;;;;;;;12.27;53.61;99527.50;20975600;28;20294;-91
2023/10/22 09:32:51;;;;;;;0.97;0.40;;;;;;;11.96;53.44;99532.22;20971694;28;20567;-83
2023/10/22 09:42:53;;;;;;;1.30;0.20;;;;;;;11.84;52.43;99549.97;21022984;28;20229;-88
2023/10/22 09:53:04;;;;;;;1.08;0.10;;;;;;;12.53;51.06;99554.44;21054382;28;20684;-80
2023/10/22 10:03:07;;;;;;;0.20;0.10;;;;;;;11.67;54.44;99584.91;21060880;28;20217;-87
2023/10/22 10:13:12;;;;;;;1.70;0.30;;;;;;;12.06;53.92;99600.22;21044746;28;20222;-85
2023/10/22 10:23:20;;;;;;;1.10;0.10;;;;;;;12.21;55.53;99613.56;21060586;28;20248;-88
2023/10/22 10:33:30;;;;;;;1.30;0.15;;;;;;;11.69;58.95;99624.03;21053357;28;20225;-80
2023/10/22 10:44:10;;;;;;;1.90;0.10;;;;;;;12.16;57.98;99622.28;21001409;28;20218;-84
2023/10/22 10:54:19;;;;;;;0.80;0.30;;;;;;;12.48;58.36;99622.38;20967383;28;20222;-84
2023/10/22 11:04:32;;;;;;;0.50;0.10;;;;;;;12.42;60.38;99629.47;20964340;28;20211;-87
2023/10/22 11:14:37;;;;;;;0.98;0.20;;;;;;;12.38;59.49;99617.25;20960644;28;20284;-79
2023/10/22 11:24:45;;;;;;;2.17;0.10;;;;;;;12.31;59.81;99626.34;20961426;28;20199;-80
2023/10/22 11:35:02;;;;;;;2.00;0.30;;;;;;;12.82;58.64;99624.63;20971818;28;20232;-81
2023/10/22 11:45:09;;;;;;;1.10;0.20;;;;;;;12.23;58.91;99639.41;20963930;28;20269;-87
2023/10/22 11:55:16;;;;;;;1.65;0.20;;;;;;;12.71;58.31;99665.84;20974706;28;20742;-89
2023/10/22 12:05:25;;;;;;;0.90;0.20;;;;;;;12.18;59.07;99665.06;20950995;28;20199;-89
2023/10/22 12:15:42;;;;;;;2.03;0.15;;;;;;;12.45;57.54;99671.91;20941662;28;20221;-86
2023/10/22 12:25:50;;;;;;;0.63;0.10;;;;;;;13.01;55.27;99669.09;20977075;28;20199;-86
2023/10/22 12:36:09;;;;;;;1.52;0.10;;;;;;;13.18;54.34;99671.59;20978944;28;20222;-87
2023/10/22 12:46:17;;;;;;;0.10;0.10;;;;;;;13.33;52.74;99686.94;21061979;28;20214;-88
2023/10/22 12:56:42;;;;;;;0.75;0.20;;;;;;;13.01;54.61;99702.16;21051480;28;20230;-88
2023/10/22 13:06:56;;;;;;;2.53;1.23;;;;;;;13.09;54.67;99704.84;21052243;28;20248;-89
2023/10/22 13:17:03;;;;;;;1.48;0.50;;;;;;;13.30;54.05;99715.91;21069075;28;20219;-90
2023/10/22 13:27:06;;;;;;;0.50;0.15;;;;;;;13.17;54.08;99717.16;21061274;28;20264;-88
2023/10/22 13:37:17;;;;;;;2.08;0.15;;;;;;;12.80;55.47;99737.09;21075662;28;20219;-89
2023/10/22 13:47:25;;;;;;;0.95;0.10;;;;;;;12.70;57.19;99736.78;21080058;28;20234;-79
2023/10/22 13:57:39;;;;;;;1.38;0.30;;;;;;;12.45;58.71;99759.41;21063871;28;20317;-79
2023/10/22 14:07:49;;;;;;;0.68;0.20;;;;;;;12.70;59.46;99765.84;21076415;28;20285;-78
2023/10/22 14:17:56;;;;;;;0.95;0.40;;;;;;;12.55;62.09;99763.75;21063013;28;20216;-80
2023/10/22 14:27:59;;;;;;;0.60;0.40;;;;;;;12.75;61.89;99774.03;21064168;28;20571;-80
2023/10/22 14:38:04;;;;;;;0.55;0.40;;;;;;;12.32;64.91;99788.00;21069543;28;20522;-78
2023/10/22 14:48:10;;;;;;;0.30;0.30;;;;;;;12.44;66.50;99800.09;20999536;28;20633;-84
2023/10/22 14:58:14;;;;;;;0.80;0.80;;;;;;;11.86;74.08;99819.09;20994188;28;20219;-82
2023/10/22 15:08:32;;;;;;;3.17;0.83;;;;;;;11.51;77.70;99832.75;20996578;28;20191;-93
2023/10/22 15:18:36;;;;;;;1.70;1.60;;;;;;;11.83;78.49;99821.78;20985266;28;20218;-78
2023/10/22 15:28:39;;;;;;;1.30;1.20;;;;;;;11.89;77.93;99829.69;20987080;28;20669;-79
2023/10/22 15:38:45;;;;;;;1.48;0.90;;;;;;;11.54;78.67;99840.50;20997753;28;20230;-79
2023/10/22 15:49:05;;;;;;;1.30;1.00;;;;;;;11.31;78.59;99850.50;21078777;28;20218;-86
2023/10/22 15:59:39;;;;;;;1.75;0.70;;;;;;;11.71;76.42;99855.59;21075677;28;20264;-80
2023/10/22 16:09:54;;;;;;;1.13;1.03;;;;;;;11.58;77.45;99863.19;21061782;28;20199;-79
2023/10/22 16:20:05;;;;;;;2.75;1.23;;;;;;;11.34;77.32;99866.69;21073573;28;20209;-79
2023/10/22 16:30:09;;;;;;;5.25;1.35;;;;;;;11.48;77.42;99883.31;21073692;28;20221;-92
2023/10/22 16:40:13;;;;;;;3.03;1.50;;;;;;;11.68;76.13;99892.94;21108660;28;20304;-92
2023/10/22 16:50:20;;;;;;;2.00;1.70;;;;;;;11.38;77.48;99907.13;21057457;28;20279;-89
2023/10/22 17:00:30;;;;;;;2.57;1.57;;;;;;;11.55;75.47;99918.22;21059391;28;20213;-79
2023/10/22 17:10:35;;;;;;;3.22;2.20;;;;;;;11.29;77.74;99925.25;21072982;28;20218;-79
2023/10/22 17:20:40;;;;;;;3.28;1.85;;;;;;;11.38;77.33;99935.28;21081905;28;20225;-78
2023/10/22 17:30:51;;;;;;;1.53;1.13;;;;;;;11.29;77.14;99943.00;21063217;28;20221;-90
2023/10/22 17:40:59;;;;;;;3.70;1.50;;;;;;;11.36;76.42;99965.78;21055613;28;20527;-91
2023/10/22 17:51:09;;;;;;;1.88;1.42;;;;;;;11.34;76.19;99985.03;21075693;28;20276;-79
2023/10/22 18:01:14;;;;;;;1.23;1.13;;;;;;;11.37;75.78;99987.16;21077206;28;20266;-79
2023/10/22 18:11:22;;;;;;;2.30;1.17;;;;;;;11.43;75.59;99999.06;21086305;28;20213;-89
2023/10/22 18:21:26;;;;;;;1.40;1.30;;;;;;;10.94;77.86;100003.50;21063889;28;20538;-84
2023/10/22 18:31:30;;;;;;;2.13;1.20;;;;;;;11.00;77.38;100016.22;21056836;28;20264;-80
2023/10/22 18:41:36;;;;;;;1.50;1.40;;;;;;;11.11;76.63;100023.13;21073219;28;20672;-79
2023/10/22 18:51:39;;;;;;;3.22;1.80;;;;;;;11.57;74.02;100031.41;21085382;28;20230;-79
2023/10/22 19:01:44;;;;;;;2.00;1.20;;;;;;;11.06;77.05;100024.13;21070869;28;20645;-88
2023/10/22 19:11:47;;;;;;;1.95;1.40;;;;;;;10.62;79.04;100042.38;21101417;28;20218;-79
2023/10/22 19:21:52;;;;;;;1.90;1.40;;;;;;;11.03;77.01;100055.81;21068428;28;20194;-79
2023/10/22 19:31:55;;;;;;;2.00;1.20;;;;;;;10.93;76.97;100063.78;21071924;28;20219;-79
2023/10/22 19:42:00;;;;;;;2.27;1.43;;;;;;;11.41;75.25;100066.19;21032615;28;20325;-82
2023/10/22 19:52:03;;;;;;;2.53;1.67;;;;;;;10.93;77.33;100091.94;20964332;28;20223;-83
2023/10/22 20:02:08;;;;;;;3.00;1.90;;;;;;;10.81;77.78;100093.47;20972126;28;20632;-86
2023/10/22 20:12:10;;;;;;;2.97;1.40;;;;;;;11.42;74.62;100099.66;20974489;28;21137;-79
2023/10/22 20:22:15;;;;;;;1.60;1.27;;;;;;;11.10;76.25;100108.75;20972716;28;20225;-87
2023/10/22 20:32:20;;;;;;;1.30;1.20;;;;;;;10.99;77.00;100110.31;20964571;28;20215;-79
2023/10/22 20:42:25;;;;;;;1.95;1.05;;;;;;;11.14;75.78;100126.66;21011878;28;20218;-83
2023/10/22 20:52:31;;;;;;;1.53;1.10;;;;;;;11.39;75.43;100119.22;21076651;28;20226;-86
2023/10/22 21:02:38;;;;;;;1.10;1.00;;;;;;;11.36;75.32;100126.38;21070439;28;20230;-87
2023/10/22 21:12:41;;;;;;;5.67;1.03;;;;;;;11.49;74.92;100128.13;21078901;28;20223;-80
2023/10/22 21:22:45;;;;;;;2.40;0.63;;;;;;;11.84;73.41;100127.91;21069033;28;20195;-80
2023/10/22 21:32:48;;;;;;;1.37;0.97;;;;;;;11.37;75.10;100132.81;21081134;28;20309;-86
2023/10/22 21:42:54;;;;;;;1.40;0.77;;;;;;;11.62;74.00;100134.72;21090269;28;20318;-79
2023/10/22 21:52:57;;;;;;;1.10;1.00;;;;;;;11.50;74.82;100140.22;21067161;28;20719;-79
2023/10/22 22:03:03;;;;;;;4.15;1.35;;;;;;;11.13;75.42;100136.25;21065320;28;20237;-84
2023/10/22 22:13:05;;;;;;;2.00;0.98;;;;;;;11.86;72.29;100142.50;21070827;28;20500;-90
2023/10/22 22:23:11;;;;;;;3.60;0.80;;;;;;;11.63;73.50;100144.81;21082008;28;20194;-82
2023/10/22 22:33:13;;;;;;;2.60;1.00;;;;;;;11.17;74.83;100159.78;21075295;28;20313;-79
2023/10/22 22:43:18;;;;;;;4.72;0.77;;;;;;;11.47;73.24;100158.63;21068977;28;20658;-79
2023/10/22 22:53:20;;;;;;;1.52;0.93;;;;;;;11.53;73.67;100159.28;21070274;28;20313;-85
2023/10/22 23:03:30;;;;;;;1.55;0.70;;;;;;;11.56;72.77;100167.06;21067360;28;20263;-80
2023/10/22 23:13:33;;;;;;;2.07;1.13;;;;;;;11.11;74.86;100166.75;21039637;28;20213;-79
2023/10/22 23:23:37;;;;;;;2.53;1.13;;;;;;;11.39;73.51;100170.78;21067665;28;20649;-83
2023/10/22 23:33:40;;;;;;;2.42;1.15;;;;;;;11.44;73.36;100176.19;21060115;28;20214;-79
2023/10/22 23:43:45;;;;;;;2.23;0.77;;;;;;;11.72;72.25;100182.22;20992201;28;20640;-79
2023/10/22 23:53:48;;;;;;;2.37;1.20;;;;;;;11.68;72.17;100197.34;20956916;28;20520;-88
